To NAV CANADA Home Page Login to a new session Search on AWWS site Feedback and Comments Disclaimer Vers la page française équivalente Tips FAQ What's new on the site To the Forecasts and Observations / NOTAM section To "File a Flight Plan" website Publications and other links Update of the User's profile FIC Telephone Numbers My Weather Data Folder Route Weather Data Regional Weather Data Local Weather Data To the Forecasts and Observations / NOTAM section
Request Generated 08/22/2017 at 01:44:29 UTC . Weather information available at that time is displayed.

METAR/TAF

If you find any discrepancies between the coded METAR/TAF and the plain language METAR/TAF please use the coded METAR/TAF. LWIS bulletins are not decoded in plain language.

VANCOUVER INTL/BC    (show WxCam)

METAR CYVR 220100Z 24006KT 30SM FEW230 21/15 A3003 RMK CC1 CC TR SLP171 DENSITY ALT 600FT=
METAR
LOCATION
CYVR - VANCOUVER INTL/BC
DATE - TIME
22 AUGUST 2017 - 0100 UTC
WIND
240 TRUE @ 6  KNOTS
VISIBILITY
30 STAT.  MILES
RUNWAY VISUAL RANGE
WEATHER
CLOUDINESS
FEW CLOUDS (1/8 - 2/8) 23000  FT
TEMP / DEWPOINT
21 C / 15 C
ALTIMETER
30.03 IN HG
RECENT WEATHER
WIND SHEAR

METAR CYVR 220000Z 23007KT 30SM FEW230 21/15 A3005 RMK CC1 SLP177 DENSITY ALT 700FT=
METAR
LOCATION
CYVR - VANCOUVER INTL/BC
DATE - TIME
22 AUGUST 2017 - 0000 UTC
WIND
230 TRUE @ 7  KNOTS
VISIBILITY
30 STAT.  MILES
RUNWAY VISUAL RANGE
WEATHER
CLOUDINESS
FEW CLOUDS (1/8 - 2/8) 23000  FT
TEMP / DEWPOINT
21 C / 15 C
ALTIMETER
30.05 IN HG
RECENT WEATHER
WIND SHEAR

METAR CYVR 212300Z 23006KT 30SM FEW210 FEW250 21/14 A3007 RMK CC1CI1 CI TR CONTRAILS SLP185 DENSITY ALT 600FT=
METAR
LOCATION
CYVR - VANCOUVER INTL/BC
DATE - TIME
21 AUGUST 2017 - 2300 UTC
WIND
230 TRUE @ 6  KNOTS
VISIBILITY
30 STAT.  MILES
RUNWAY VISUAL RANGE
WEATHER
CLOUDINESS
FEW CLOUDS (1/8 - 2/8) 21000  FT
FEW CLOUDS (1/8 - 2/8) 25000  FT
TEMP / DEWPOINT
21 C / 14 C
ALTIMETER
30.07 IN HG
RECENT WEATHER
WIND SHEAR

TAF CYVR 212338Z 2200/2306 25008KT P6SM FEW220 BECMG 2209/2211 09006KT BECMG 2216/2218 17008KT RMK NXT FCST BY 220300Z=
TAF
LOCATION

CYVR - VANCOUVER INTL/BC
VALIDITY [UTC]
21 AUG - 2338 to
23 AUG - 0600
 
TIMES
[UTC]
WIND
[DEGREES TRUE]
VISIBILITY
[STAT. MILES]
WEATHER
CLOUDINESS
[FEET AGL]
 
22 AUG - 0000 to
23 AUG - 0600
250 @ 8 KNOTS
6+
NIL
22000 FEW
BECOMING
22 AUG - 0900 to
22 AUG - 1100
90 @ 6 KNOTS
 
 
 
BECOMING
22 AUG - 1600 to
22 AUG - 1800
170 @ 8 KNOTS
 
 
 
REMARKS
THE NEXT FORECAST WILL BE ISSUED BY 0300 UTC ON DAY 22


Your time UTC time
Weather data provided by Environment Canada and NAV CANADA